Time;durP1;ratioP1;P1;durP2;ratioP2;P2;SDS_P1;SDS_P2;PMS_P1;PMS_P2;Temp;Humidity;BMP_temperature;BMP_pressure;BME280_temperature;BME280_humidity;BME280_pressure;Samples;Min_cycle;Max_cycle;Signal;HPM_P1;HPM_P2
2023/09/06 00:01:51;;;;;;;4.90;2.65;;;;;;;;;;10411060;28;20028;-47
2023/09/06 00:06:52;;;;;;;5.30;3.10;;;;;;;;;;10410275;28;20029;-46
2023/09/06 00:11:52;;;;;;;6.32;2.60;;;;;;;;;;10410222;28;20091;-47
2023/09/06 00:16:53;;;;;;;3.50;2.78;;;;;;;;;;10410008;28;20033;-46
2023/09/06 00:21:53;;;;;;;5.05;2.50;;;;;;;;;;10407687;28;20029;-46
2023/09/06 00:26:57;;;;;;;2.85;2.40;;;;;;;;;;10410159;28;20088;-47
2023/09/06 00:31:58;;;;;;;6.38;2.47;;;;;;;;;;10407988;28;20389;-47
2023/09/06 00:37:01;;;;;;;6.90;2.67;;;;;;;;;;10408650;28;20025;-46
2023/09/06 00:42:03;;;;;;;5.25;2.80;;;;;;;;;;10408703;28;20532;-46
2023/09/06 00:47:03;;;;;;;6.20;3.13;;;;;;;;;;10407897;28;20521;-58
2023/09/06 00:52:04;;;;;;;3.97;2.75;;;;;;;;;;10410069;28;20026;-47
2023/09/06 00:57:05;;;;;;;3.30;2.78;;;;;;;;;;10420444;28;20114;-47
2023/09/06 01:02:05;;;;;;;3.28;2.63;;;;;;;;;;10407137;28;20033;-47
2023/09/06 01:07:07;;;;;;;2.58;2.25;;;;;;;;;;10409010;28;20048;-48
2023/09/06 01:12:09;;;;;;;4.45;2.63;;;;;;;;;;10408015;28;20105;-48
2023/09/06 01:17:13;;;;;;;4.68;2.47;;;;;;;;;;10409359;28;20052;-47
2023/09/06 01:22:28;;;;;;;4.20;2.75;;;;;;;;;;10406682;28;20491;-47
2023/09/06 01:27:28;;;;;;;3.97;2.42;;;;;;;;;;10408703;28;20017;-49
2023/09/06 01:32:29;;;;;;;2.95;2.65;;;;;;;;;;10407745;28;20026;-47
2023/09/06 01:37:32;;;;;;;2.85;2.50;;;;;;;;;;10408692;28;20044;-47
2023/09/06 01:42:33;;;;;;;3.97;2.75;;;;;;;;;;10405737;28;20038;-49
2023/09/06 01:47:33;;;;;;;3.28;2.60;;;;;;;;;;10406108;28;20022;-47
2023/09/06 01:52:36;;;;;;;5.00;3.08;;;;;;;;;;10406878;28;20034;-50
2023/09/06 01:57:37;;;;;;;4.32;2.60;;;;;;;;;;10416377;28;20167;-46
2023/09/06 02:02:37;;;;;;;3.08;2.78;;;;;;;;;;10407523;28;20246;-46
2023/09/06 02:07:38;;;;;;;3.47;2.47;;;;;;;;;;10407480;28;20461;-47
2023/09/06 02:12:39;;;;;;;4.45;2.50;;;;;;;;;;10406334;28;20547;-47
2023/09/06 02:17:44;;;;;;;5.15;2.60;;;;;;;;;;10406691;28;20366;-46
2023/09/06 02:22:52;;;;;;;4.47;2.60;;;;;;;;;;10405965;28;20055;-46
2023/09/06 02:27:53;;;;;;;3.75;2.17;;;;;;;;;;10406825;28;20157;-46
2023/09/06 02:32:55;;;;;;;3.47;2.35;;;;;;;;;;10406013;28;20025;-50
2023/09/06 02:37:56;;;;;;;3.38;2.70;;;;;;;;;;10406630;28;20045;-47
2023/09/06 02:42:57;;;;;;;5.32;2.90;;;;;;;;;;10405879;28;20109;-46
2023/09/06 02:47:57;;;;;;;4.68;2.95;;;;;;;;;;10404658;28;20041;-46
2023/09/06 02:52:58;;;;;;;6.22;2.90;;;;;;;;;;10406485;28;20091;-47
2023/09/06 02:57:59;;;;;;;4.65;2.70;;;;;;;;;;10405459;28;20033;-46
2023/09/06 03:03:05;;;;;;;3.65;2.85;;;;;;;;;;10405472;28;20032;-46
2023/09/06 03:08:06;;;;;;;3.47;2.47;;;;;;;;;;10405089;28;20461;-48
2023/09/06 03:13:09;;;;;;;5.03;2.80;;;;;;;;;;10404411;28;20026;-46
2023/09/06 03:18:10;;;;;;;3.22;2.30;;;;;;;;;;10413221;28;20045;-46
2023/09/06 03:23:17;;;;;;;4.80;2.63;;;;;;;;;;10409977;28;20034;-46
2023/09/06 03:28:18;;;;;;;2.90;2.43;;;;;;;;;;10413058;28;20064;-46
2023/09/06 03:33:19;;;;;;;3.00;2.28;;;;;;;;;;10411963;28;21056;-46
2023/09/06 03:38:25;;;;;;;6.25;2.72;;;;;;;;;;10412936;28;20025;-46
2023/09/06 03:43:32;;;;;;;3.83;2.45;;;;;;;;;;10411304;28;20073;-47
2023/09/06 03:48:33;;;;;;;8.37;2.93;;;;;;;;;;10411525;28;20040;-47
2023/09/06 03:53:37;;;;;;;3.67;2.58;;;;;;;;;;10412822;28;20045;-48
2023/09/06 03:58:37;;;;;;;8.88;2.28;;;;;;;;;;10412388;28;20040;-48
2023/09/06 04:03:38;;;;;;;5.65;3.00;;;;;;;;;;10412148;28;20045;-50
2023/09/06 04:08:39;;;;;;;3.80;2.80;;;;;;;;;;10400317;28;20473;-48
2023/09/06 04:13:40;;;;;;;4.70;2.95;;;;;;;;;;10412162;28;20033;-47
2023/09/06 04:18:42;;;;;;;3.17;2.65;;;;;;;;;;10410539;28;20045;-57
2023/09/06 04:23:44;;;;;;;7.00;2.83;;;;;;;;;;10409347;28;20036;-45
2023/09/06 04:28:45;;;;;;;6.53;2.80;;;;;;;;;;10409791;28;20490;-46
2023/09/06 04:33:46;;;;;;;5.43;2.75;;;;;;;;;;10396770;28;20025;-47
2023/09/06 04:38:46;;;;;;;4.57;2.83;;;;;;;;;;10410532;28;20123;-46
2023/09/06 04:43:47;;;;;;;2.95;2.42;;;;;;;;;;10409070;28;20041;-45
2023/09/06 04:48:47;;;;;;;6.80;2.95;;;;;;;;;;10409059;28;20029;-46
2023/09/06 04:53:49;;;;;;;3.88;2.88;;;;;;;;;;10409935;28;20187;-46
2023/09/06 04:58:49;;;;;;;5.30;2.88;;;;;;;;;;10408862;28;20049;-46
2023/09/06 05:03:50;;;;;;;4.45;2.80;;;;;;;;;;10398161;28;20485;-54
2023/09/06 05:08:50;;;;;;;6.75;2.95;;;;;;;;;;10402622;28;20034;-46
2023/09/06 05:13:52;;;;;;;3.22;2.83;;;;;;;;;;10407385;28;20029;-48
2023/09/06 05:18:52;;;;;;;4.35;2.90;;;;;;;;;;10407814;28;20026;-48
2023/09/06 05:23:53;;;;;;;9.75;3.15;;;;;;;;;;10403123;28;20054;-47
2023/09/06 05:28:54;;;;;;;13.20;3.17;;;;;;;;;;10407477;28;20033;-47
2023/09/06 05:33:55;;;;;;;5.63;3.03;;;;;;;;;;10407613;28;20492;-47
2023/09/06 05:38:55;;;;;;;6.05;3.35;;;;;;;;;;10406638;28;20102;-47
2023/09/06 05:43:56;;;;;;;8.50;3.28;;;;;;;;;;10392543;28;20451;-46
2023/09/06 05:48:57;;;;;;;8.55;3.90;;;;;;;;;;10393385;28;20283;-46
2023/09/06 05:54:00;;;;;;;12.25;3.45;;;;;;;;;;10400896;28;20037;-46
2023/09/06 05:59:00;;;;;;;8.73;3.75;;;;;;;;;;10404736;28;20378;-46
2023/09/06 06:04:01;;;;;;;18.73;3.15;;;;;;;;;;10396891;28;20017;-61
2023/09/06 06:09:02;;;;;;;7.97;2.95;;;;;;;;;;10403601;28;20029;-58
2023/09/06 06:14:04;;;;;;;12.07;3.08;;;;;;;;;;10393160;28;20029;-48
2023/09/06 06:19:04;;;;;;;11.65;2.80;;;;;;;;;;10402990;28;20037;-58
2023/09/06 06:24:09;;;;;;;12.13;3.20;;;;;;;;;;10412933;28;20064;-57
2023/09/06 06:29:09;;;;;;;8.82;3.40;;;;;;;;;;10404432;28;20485;-57
2023/09/06 06:34:10;;;;;;;8.10;2.97;;;;;;;;;;10406469;28;20021;-55
2023/09/06 06:39:12;;;;;;;6.82;3.20;;;;;;;;;;10405223;28;20024;-60
2023/09/06 06:44:12;;;;;;;10.07;2.67;;;;;;;;;;10405670;28;20052;-56
2023/09/06 06:49:13;;;;;;;5.85;2.60;;;;;;;;;;10405879;28;20036;-59
2023/09/06 06:54:14;;;;;;;10.70;2.83;;;;;;;;;;10406429;28;20504;-58
2023/09/06 06:59:15;;;;;;;9.10;2.75;;;;;;;;;;10413801;28;20452;-59
2023/09/06 07:04:15;;;;;;;4.93;2.70;;;;;;;;;;10413713;28;20424;-58
2023/09/06 07:09:16;;;;;;;6.50;3.40;;;;;;;;;;10414172;28;20032;-60
2023/09/06 07:14:16;;;;;;;6.05;3.17;;;;;;;;;;10412910;28;20026;-59
2023/09/06 07:19:17;;;;;;;5.43;2.83;;;;;;;;;;10414623;28;20021;-58
2023/09/06 07:24:17;;;;;;;9.50;2.97;;;;;;;;;;10412942;28;20026;-59
2023/09/06 07:29:18;;;;;;;7.45;2.58;;;;;;;;;;10413096;28;20045;-55
2023/09/06 07:34:20;;;;;;;6.07;2.60;;;;;;;;;;10413671;28;20096;-60
2023/09/06 07:39:21;;;;;;;5.03;2.70;;;;;;;;;;10412071;28;20057;-57
2023/09/06 07:44:22;;;;;;;3.63;2.30;;;;;;;;;;10400686;28;20052;-52
2023/09/06 07:49:23;;;;;;;8.60;3.20;;;;;;;;;;10412539;28;20049;-59
2023/09/06 07:54:23;;;;;;;5.70;3.10;;;;;;;;;;10412309;28;20501;-59
2023/09/06 07:59:24;;;;;;;8.52;3.28;;;;;;;;;;10411653;28;20018;-59
2023/09/06 08:04:25;;;;;;;5.63;2.85;;;;;;;;;;10411192;28;20100;-59
2023/09/06 08:09:25;;;;;;;7.32;2.83;;;;;;;;;;10410589;28;20037;-53
2023/09/06 08:14:26;;;;;;;6.72;2.72;;;;;;;;;;10411136;28;20026;-52
2023/09/06 08:19:26;;;;;;;7.35;2.88;;;;;;;;;;10410602;28;20036;-51
2023/09/06 08:24:30;;;;;;;9.23;2.97;;;;;;;;;;10412237;28;20029;-48
2023/09/06 08:29:31;;;;;;;6.10;3.25;;;;;;;;;;10410931;28;20030;-52
2023/09/06 08:34:32;;;;;;;3.92;2.65;;;;;;;;;;10410226;28;20461;-50
2023/09/06 08:39:34;;;;;;;4.03;2.50;;;;;;;;;;10410226;28;20061;-50
2023/09/06 08:44:37;;;;;;;10.35;3.38;;;;;;;;;;10409953;28;20103;-57
2023/09/06 08:49:37;;;;;;;5.80;2.83;;;;;;;;;;10409747;28;20033;-51
2023/09/06 08:54:38;;;;;;;8.43;2.90;;;;;;;;;;10410051;28;20087;-50
2023/09/06 08:59:39;;;;;;;4.85;2.60;;;;;;;;;;10408346;28;20026;-52
2023/09/06 09:04:42;;;;;;;4.50;2.70;;;;;;;;;;10410168;28;20026;-55
2023/09/06 09:10:07;;;;;;;4.70;2.67;;;;;;;;;;10408940;28;20028;-53
2023/09/06 09:15:08;;;;;;;6.15;2.92;;;;;;;;;;10409204;28;20029;-57
2023/09/06 09:20:09;;;;;;;6.03;2.70;;;;;;;;;;10408221;28;20277;-59
2023/09/06 09:25:23;;;;;;;9.57;3.13;;;;;;;;;;10407549;28;20029;-60
2023/09/06 09:30:24;;;;;;;3.40;2.58;;;;;;;;;;10408568;28;20047;-55
2023/09/06 09:35:25;;;;;;;5.32;2.50;;;;;;;;;;10405697;28;20448;-55
2023/09/06 09:40:32;;;;;;;7.80;2.53;;;;;;;;;;10404887;28;20025;-54
2023/09/06 09:45:43;;;;;;;3.97;2.85;;;;;;;;;;10407287;28;20545;-59
2023/09/06 09:50:46;;;;;;;9.18;2.70;;;;;;;;;;10407270;28;20017;-58
2023/09/06 09:55:49;;;;;;;6.93;2.47;;;;;;;;;;10407838;28;20021;-57
2023/09/06 10:00:50;;;;;;;5.10;2.72;;;;;;;;;;10406583;28;20021;-60
2023/09/06 10:05:51;;;;;;;4.03;2.63;;;;;;;;;;10404494;28;20082;-54
2023/09/06 10:10:52;;;;;;;3.17;2.45;;;;;;;;;;10404923;28;20033;-48
2023/09/06 10:15:56;;;;;;;5.70;2.70;;;;;;;;;;10404022;28;20034;-55
2023/09/06 10:20:57;;;;;;;6.72;2.95;;;;;;;;;;10380703;28;20652;-52
2023/09/06 10:26:00;;;;;;;5.60;2.22;;;;;;;;;;10403700;28;20091;-56
2023/09/06 10:31:08;;;;;;;4.00;2.65;;;;;;;;;;10403491;28;20095;-55
2023/09/06 10:36:12;;;;;;;2.50;2.23;;;;;;;;;;10404927;28;20112;-56
2023/09/06 10:41:12;;;;;;;3.70;2.35;;;;;;;;;;10403796;28;20057;-55
2023/09/06 10:46:13;;;;;;;2.97;2.15;;;;;;;;;;10404670;28;20056;-55
2023/09/06 10:51:14;;;;;;;3.42;2.45;;;;;;;;;;10405156;28;20090;-56
2023/09/06 10:56:27;;;;;;;5.72;2.45;;;;;;;;;;10405618;28;20552;-59
2023/09/06 11:01:28;;;;;;;4.38;2.40;;;;;;;;;;10405139;28;20488;-57
2023/09/06 11:06:28;;;;;;;2.75;2.10;;;;;;;;;;10402720;28;20021;-57
2023/09/06 11:11:29;;;;;;;2.50;2.20;;;;;;;;;;10404752;28;20034;-53
2023/09/06 11:16:30;;;;;;;3.80;2.38;;;;;;;;;;10405107;28;20040;-60
2023/09/06 11:21:31;;;;;;;2.80;2.50;;;;;;;;;;10401674;28;20033;-59
2023/09/06 11:26:35;;;;;;;3.53;2.30;;;;;;;;;;10391142;28;20032;-57
2023/09/06 11:31:36;;;;;;;3.53;2.05;;;;;;;;;;10400902;28;20043;-59
2023/09/06 11:36:36;;;;;;;3.80;2.35;;;;;;;;;;10402613;28;20510;-57
2023/09/06 11:41:39;;;;;;;8.55;2.30;;;;;;;;;;10403660;28;20085;-48
2023/09/06 11:46:43;;;;;;;5.45;2.35;;;;;;;;;;10407804;28;20049;-56
2023/09/06 11:51:46;;;;;;;3.22;2.10;;;;;;;;;;10396392;28;20034;-59
2023/09/06 11:56:47;;;;;;;3.67;2.22;;;;;;;;;;10412185;28;20046;-50
2023/09/06 12:01:52;;;;;;;2.83;2.20;;;;;;;;;;10409883;28;20033;-49
2023/09/06 12:06:55;;;;;;;4.55;2.15;;;;;;;;;;10412350;28;20025;-53
2023/09/06 12:11:55;;;;;;;6.50;2.55;;;;;;;;;;10410889;28;20030;-50
2023/09/06 12:16:56;;;;;;;12.95;2.38;;;;;;;;;;10410730;28;20068;-52
2023/09/06 12:21:57;;;;;;;8.52;2.55;;;;;;;;;;10410503;28;20044;-48
2023/09/06 12:26:58;;;;;;;5.30;2.60;;;;;;;;;;10403880;28;20029;-48
2023/09/06 12:31:59;;;;;;;4.85;2.40;;;;;;;;;;10405588;28;20048;-49
2023/09/06 12:37:00;;;;;;;4.93;2.30;;;;;;;;;;10407426;28;20063;-58
2023/09/06 12:42:00;;;;;;;4.88;2.33;;;;;;;;;;10402778;28;20439;-49
2023/09/06 12:47:16;;;;;;;10.70;2.78;;;;;;;;;;10394231;28;20045;-50
2023/09/06 12:52:21;;;;;;;7.38;2.25;;;;;;;;;;10403475;28;20404;-51
2023/09/06 12:57:22;;;;;;;11.73;2.45;;;;;;;;;;10406092;28;20397;-49
2023/09/06 13:02:25;;;;;;;5.13;2.42;;;;;;;;;;10409006;28;20033;-48
2023/09/06 13:07:28;;;;;;;7.47;2.47;;;;;;;;;;10400667;28;20029;-49
2023/09/06 13:12:29;;;;;;;5.03;2.20;;;;;;;;;;10407931;28;20033;-48
2023/09/06 13:17:31;;;;;;;5.57;2.28;;;;;;;;;;10407469;28;20045;-49
2023/09/06 13:22:31;;;;;;;4.53;1.98;;;;;;;;;;10406000;28;20037;-48
2023/09/06 13:27:33;;;;;;;9.90;2.33;;;;;;;;;;10404603;28;20034;-50
2023/09/06 13:32:34;;;;;;;3.28;2.25;;;;;;;;;;10408633;28;20079;-50
2023/09/06 13:37:34;;;;;;;4.18;1.98;;;;;;;;;;10405076;28;20491;-51
2023/09/06 13:42:35;;;;;;;7.32;2.00;;;;;;;;;;10406536;28;20049;-59
2023/09/06 13:47:36;;;;;;;3.30;2.00;;;;;;;;;;10405875;28;20028;-59
2023/09/06 13:52:36;;;;;;;4.85;2.03;;;;;;;;;;10406121;28;20029;-59
2023/09/06 13:57:37;;;;;;;3.83;1.83;;;;;;;;;;10407639;28;20025;-59
2023/09/06 14:02:37;;;;;;;5.35;2.00;;;;;;;;;;10405710;28;20032;-59
2023/09/06 14:07:39;;;;;;;2.60;1.70;;;;;;;;;;10406297;28;20052;-59
2023/09/06 14:12:40;;;;;;;3.70;2.80;;;;;;;;;;10407419;28;20362;-55
2023/09/06 14:17:40;;;;;;;5.88;1.98;;;;;;;;;;10406516;28;20033;-59
2023/09/06 14:22:41;;;;;;;5.40;2.28;;;;;;;;;;10406445;28;20033;-58
2023/09/06 14:27:42;;;;;;;9.82;2.55;;;;;;;;;;10406129;28;20029;-58
2023/09/06 14:32:42;;;;;;;11.32;2.42;;;;;;;;;;10406020;28;20040;-60
2023/09/06 14:37:43;;;;;;;4.72;2.22;;;;;;;;;;10406903;28;20033;-59
2023/09/06 14:42:45;;;;;;;3.92;2.10;;;;;;;;;;10406611;28;20504;-57
2023/09/06 14:47:45;;;;;;;4.68;2.33;;;;;;;;;;10394004;28;20037;-59
2023/09/06 14:52:46;;;;;;;4.72;2.03;;;;;;;;;;10392687;28;20017;-59
2023/09/06 14:57:46;;;;;;;5.32;2.17;;;;;;;;;;10405800;28;20021;-59
2023/09/06 15:02:47;;;;;;;3.60;1.85;;;;;;;;;;10404797;28;20566;-60
2023/09/06 15:07:48;;;;;;;4.45;1.77;;;;;;;;;;10406021;28;20485;-59
2023/09/06 15:12:49;;;;;;;4.65;2.50;;;;;;;;;;10401999;28;20495;-48
2023/09/06 15:17:49;;;;;;;5.45;1.92;;;;;;;;;;10407735;28;20022;-48
2023/09/06 15:22:50;;;;;;;3.65;2.38;;;;;;;;;;10414335;28;20465;-47
2023/09/06 15:27:50;;;;;;;5.03;2.15;;;;;;;;;;10412898;28;20480;-49
2023/09/06 15:32:51;;;;;;;5.32;1.88;;;;;;;;;;10413103;28;20048;-49
2023/09/06 15:38:06;;;;;;;3.80;1.98;;;;;;;;;;10412831;28;20037;-48
2023/09/06 15:43:07;;;;;;;3.63;2.10;;;;;;;;;;10412227;28;20049;-48
2023/09/06 15:48:08;;;;;;;4.55;1.83;;;;;;;;;;10412650;28;20087;-47
2023/09/06 15:53:09;;;;;;;10.20;2.08;;;;;;;;;;10412866;28;20436;-48
2023/09/06 15:58:10;;;;;;;5.05;2.13;;;;;;;;;;10411808;28;20025;-48
2023/09/06 16:03:11;;;;;;;4.10;1.98;;;;;;;;;;10413013;28;20030;-47
2023/09/06 16:08:11;;;;;;;2.22;1.52;;;;;;;;;;10413039;28;20377;-47
2023/09/06 16:13:12;;;;;;;4.72;1.75;;;;;;;;;;10411427;28;20025;-59
2023/09/06 16:18:13;;;;;;;2.28;1.70;;;;;;;;;;10411278;28;20029;-56
2023/09/06 16:23:14;;;;;;;4.05;1.98;;;;;;;;;;10412032;28;20030;-51
2023/09/06 16:28:15;;;;;;;3.67;1.90;;;;;;;;;;10411037;28;20024;-57
2023/09/06 16:33:17;;;;;;;5.80;1.88;;;;;;;;;;10410259;28;20271;-48
2023/09/06 16:38:18;;;;;;;2.70;1.60;;;;;;;;;;10410553;28;20099;-59
2023/09/06 16:43:19;;;;;;;4.35;1.52;;;;;;;;;;10411176;28;20141;-49
2023/09/06 16:48:20;;;;;;;3.75;1.77;;;;;;;;;;10410741;28;20092;-49
2023/09/06 16:53:21;;;;;;;5.20;1.73;;;;;;;;;;10402307;28;20087;-49
2023/09/06 16:58:22;;;;;;;1.58;1.48;;;;;;;;;;10410884;28;20084;-47
2023/09/06 17:03:22;;;;;;;4.60;2.15;;;;;;;;;;10410146;28;20086;-48
2023/09/06 17:08:24;;;;;;;3.72;1.90;;;;;;;;;;10408847;28;20508;-48
2023/09/06 17:13:24;;;;;;;3.72;1.70;;;;;;;;;;10409766;28;20108;-49
2023/09/06 17:18:28;;;;;;;1.95;1.40;;;;;;;;;;10404599;28;20457;-48
2023/09/06 17:23:29;;;;;;;2.00;1.45;;;;;;;;;;10400639;28;20033;-48
2023/09/06 17:28:30;;;;;;;3.25;1.98;;;;;;;;;;10401155;28;20484;-49
2023/09/06 17:33:31;;;;;;;4.20;1.88;;;;;;;;;;10407220;28;20030;-48
2023/09/06 17:38:32;;;;;;;2.72;1.67;;;;;;;;;;10403910;28;20041;-48
2023/09/06 17:43:33;;;;;;;3.38;1.55;;;;;;;;;;10401921;28;20045;-48
2023/09/06 17:48:34;;;;;;;5.68;1.67;;;;;;;;;;10405257;28;20033;-48
2023/09/06 17:53:36;;;;;;;1.52;1.30;;;;;;;;;;10390361;28;20260;-49
2023/09/06 17:58:37;;;;;;;2.20;1.40;;;;;;;;;;10406497;28;20037;-47
2023/09/06 18:03:40;;;;;;;3.45;1.70;;;;;;;;;;10403750;28;20424;-49
2023/09/06 18:08:42;;;;;;;1.75;1.50;;;;;;;;;;10405400;28;21620;-49
2023/09/06 18:13:43;;;;;;;2.25;1.60;;;;;;;;;;10406056;28;20069;-51
2023/09/06 18:18:44;;;;;;;4.38;1.80;;;;;;;;;;10398060;28;20510;-49
2023/09/06 18:23:47;;;;;;;4.38;1.70;;;;;;;;;;10394811;28;20256;-48
2023/09/06 18:28:48;;;;;;;2.50;1.33;;;;;;;;;;10387258;28;20044;-49
2023/09/06 18:33:48;;;;;;;4.50;1.98;;;;;;;;;;10406060;28;20030;-48
2023/09/06 18:38:49;;;;;;;5.78;2.30;;;;;;;;;;10404346;28;20442;-48
2023/09/06 18:43:50;;;;;;;2.55;2.17;;;;;;;;;;10404748;28;20045;-48
2023/09/06 18:48:51;;;;;;;5.45;2.55;;;;;;;;;;10407147;28;20473;-48
2023/09/06 18:53:52;;;;;;;3.90;2.63;;;;;;;;;;10416948;28;20071;-48
2023/09/06 18:58:52;;;;;;;4.18;2.72;;;;;;;;;;10419289;28;20048;-48
2023/09/06 19:03:53;;;;;;;6.60;3.17;;;;;;;;;;10413346;28;20226;-47
2023/09/06 19:08:56;;;;;;;7.10;3.13;;;;;;;;;;10418753;28;20392;-46
2023/09/06 19:13:57;;;;;;;7.30;3.30;;;;;;;;;;10418514;28;20029;-47
2023/09/06 19:18:58;;;;;;;4.63;3.25;;;;;;;;;;10412861;28;20041;-48
2023/09/06 19:23:59;;;;;;;3.83;2.80;;;;;;;;;;10408206;28;20029;-48
2023/09/06 19:28:59;;;;;;;6.47;3.20;;;;;;;;;;10416976;28;20033;-48
2023/09/06 19:34:00;;;;;;;3.85;2.85;;;;;;;;;;10414416;28;20083;-47
2023/09/06 19:39:01;;;;;;;6.18;2.75;;;;;;;;;;10412285;28;20098;-47
2023/09/06 19:44:01;;;;;;;6.72;3.10;;;;;;;;;;10409091;28;20046;-48
2023/09/06 19:49:02;;;;;;;7.20;2.70;;;;;;;;;;10416706;28;20041;-46
2023/09/06 19:54:02;;;;;;;5.70;3.10;;;;;;;;;;10411862;28;20033;-49
2023/09/06 19:59:06;;;;;;;14.27;3.30;;;;;;;;;;10415616;28;20105;-47
2023/09/06 20:04:08;;;;;;;6.15;3.00;;;;;;;;;;10413141;28;20385;-47
2023/09/06 20:09:08;;;;;;;6.22;3.53;;;;;;;;;;10402250;28;20039;-45
2023/09/06 20:14:10;;;;;;;6.07;2.90;;;;;;;;;;10395737;28;20040;-44
2023/09/06 20:19:11;;;;;;;4.68;2.80;;;;;;;;;;10409584;28;20034;-44
2023/09/06 20:24:12;;;;;;;4.63;2.72;;;;;;;;;;10398486;28;20037;-44
2023/09/06 20:29:15;;;;;;;4.85;3.03;;;;;;;;;;10405649;28;20037;-45
2023/09/06 20:34:15;;;;;;;4.50;2.80;;;;;;;;;;10409679;28;20065;-44
2023/09/06 20:39:16;;;;;;;5.78;2.70;;;;;;;;;;10407466;28;20038;-44
2023/09/06 20:44:16;;;;;;;5.70;2.60;;;;;;;;;;10398848;28;20050;-45
2023/09/06 20:49:17;;;;;;;9.02;2.92;;;;;;;;;;10408461;28;20486;-45
2023/09/06 20:54:18;;;;;;;3.50;2.40;;;;;;;;;;10400923;28;20045;-45
2023/09/06 20:59:18;;;;;;;3.47;2.47;;;;;;;;;;10402846;28;20497;-45
2023/09/06 21:04:19;;;;;;;3.80;2.40;;;;;;;;;;10387529;28;20451;-45
2023/09/06 21:09:19;;;;;;;2.97;2.35;;;;;;;;;;10394130;28;20036;-44
2023/09/06 21:14:20;;;;;;;2.90;2.30;;;;;;;;;;10418867;28;20160;-44
2023/09/06 21:19:20;;;;;;;21.55;2.90;;;;;;;;;;10403246;28;20029;-44
2023/09/06 21:24:21;;;;;;;5.97;3.00;;;;;;;;;;10404368;28;20044;-44
2023/09/06 21:29:22;;;;;;;4.53;2.50;;;;;;;;;;10407503;28;20175;-45
2023/09/06 21:34:22;;;;;;;3.92;2.45;;;;;;;;;;10405660;28;20034;-44
2023/09/06 21:39:24;;;;;;;3.40;2.20;;;;;;;;;;10404921;28;20026;-44
2023/09/06 21:44:25;;;;;;;10.45;2.25;;;;;;;;;;10407047;28;20164;-44
2023/09/06 21:49:25;;;;;;;2.10;1.88;;;;;;;;;;10400154;28;20033;-45
2023/09/06 21:54:26;;;;;;;8.85;2.38;;;;;;;;;;10403255;28;20026;-46
2023/09/06 21:59:26;;;;;;;2.42;2.00;;;;;;;;;;10407503;28;20029;-44
2023/09/06 22:04:27;;;;;;;3.45;2.20;;;;;;;;;;10407191;28;20091;-46
2023/09/06 22:09:27;;;;;;;3.83;2.25;;;;;;;;;;10401771;28;20045;-45
2023/09/06 22:14:28;;;;;;;7.05;2.20;;;;;;;;;;10407504;28;20210;-45
2023/09/06 22:19:29;;;;;;;6.45;2.20;;;;;;;;;;10402385;28;20057;-46
2023/09/06 22:24:30;;;;;;;4.85;2.60;;;;;;;;;;10395674;28;20033;-46
2023/09/06 22:29:31;;;;;;;2.53;2.08;;;;;;;;;;10402739;28;20381;-45
2023/09/06 22:34:34;;;;;;;5.85;2.28;;;;;;;;;;10405445;28;20037;-45
2023/09/06 22:39:35;;;;;;;6.38;1.90;;;;;;;;;;10406019;28;20033;-45
2023/09/06 22:44:36;;;;;;;5.35;2.15;;;;;;;;;;10402041;28;20045;-45
2023/09/06 22:49:36;;;;;;;5.07;2.00;;;;;;;;;;10404512;28;20087;-45
2023/09/06 22:54:38;;;;;;;2.67;2.03;;;;;;;;;;10404627;28;20030;-45
2023/09/06 22:59:39;;;;;;;4.68;1.90;;;;;;;;;;10405373;28;20120;-45
2023/09/06 23:04:40;;;;;;;3.55;1.83;;;;;;;;;;10395788;28;20370;-45
2023/09/06 23:09:41;;;;;;;7.85;1.95;;;;;;;;;;10405495;28;20132;-58
2023/09/06 23:14:42;;;;;;;2.38;1.98;;;;;;;;;;10399289;28;20106;-45
2023/09/06 23:19:48;;;;;;;2.35;1.80;;;;;;;;;;10401013;28;20026;-45
2023/09/06 23:24:51;;;;;;;3.10;2.20;;;;;;;;;;10404305;28;20078;-45
2023/09/06 23:29:57;;;;;;;4.20;2.00;;;;;;;;;;10403708;28;20029;-45
2023/09/06 23:34:58;;;;;;;3.63;2.03;;;;;;;;;;10405970;28;20025;-45
2023/09/06 23:40:00;;;;;;;2.15;1.88;;;;;;;;;;10408066;28;20029;-50
2023/09/06 23:45:01;;;;;;;2.78;1.90;;;;;;;;;;10412801;28;20034;-45
2023/09/06 23:50:02;;;;;;;5.35;2.00;;;;;;;;;;10413263;28;20037;-45
2023/09/06 23:55:03;;;;;;;4.50;2.05;;;;;;;;;;10411206;28;20034;-45
